sensor_id;sensor_type;location;lat;lon;timestamp;temperature;humidity
48752;DHT22;34544;48.836;9.174;2024-03-02T00:00:08;5.60;99.90
48752;DHT22;34544;48.836;9.174;2024-03-02T00:02:43;5.60;99.90
48752;DHT22;34544;48.836;9.174;2024-03-02T00:05:30;5.70;99.90
48752;DHT22;34544;48.836;9.174;2024-03-02T00:07:59;5.70;99.90
48752;DHT22;34544;48.836;9.174;2024-03-02T00:10:47;5.70;99.90
48752;DHT22;34544;48.836;9.174;2024-03-02T00:13:13;5.70;99.90
48752;DHT22;34544;48.836;9.174;2024-03-02T00:15:42;5.70;99.90
48752;DHT22;34544;48.836;9.174;2024-03-02T00:18:14;5.60;99.90
48752;DHT22;34544;48.836;9.174;2024-03-02T00:20:41;5.60;99.90
48752;DHT22;34544;48.836;9.174;2024-03-02T00:23:08;5.60;99.90
48752;DHT22;34544;48.836;9.174;2024-03-02T00:25:43;5.60;99.90
48752;DHT22;34544;48.836;9.174;2024-03-02T00:30:57;5.60;99.90
48752;DHT22;34544;48.836;9.174;2024-03-02T00:33:25;5.60;99.90
48752;DHT22;34544;48.836;9.174;2024-03-02T00:35:52;5.60;99.90
48752;DHT22;34544;48.836;9.174;2024-03-02T00:38:18;5.60;99.90
48752;DHT22;34544;48.836;9.174;2024-03-02T00:40:44;5.50;99.90
48752;DHT22;34544;48.836;9.174;2024-03-02T00:43:43;5.50;99.90
48752;DHT22;34544;48.836;9.174;2024-03-02T00:46:20;5.50;99.90
48752;DHT22;34544;48.836;9.174;2024-03-02T00:48:52;5.50;99.90
48752;DHT22;34544;48.836;9.174;2024-03-02T00:51:20;5.50;99.90
48752;DHT22;34544;48.836;9.174;2024-03-02T00:53:46;5.50;99.90
48752;DHT22;34544;48.836;9.174;2024-03-02T00:56:12;5.50;99.90
48752;DHT22;34544;48.836;9.174;2024-03-02T00:58:38;5.40;99.90
48752;DHT22;34544;48.836;9.174;2024-03-02T01:01:04;5.40;99.90
48752;DHT22;34544;48.836;9.174;2024-03-02T01:03:31;5.40;99.90
48752;DHT22;34544;48.836;9.174;2024-03-02T01:05:57;5.40;99.90
48752;DHT22;34544;48.836;9.174;2024-03-02T01:08:23;5.40;99.90
48752;DHT22;34544;48.836;9.174;2024-03-02T01:10:49;5.40;99.90
48752;DHT22;34544;48.836;9.174;2024-03-02T01:13:15;5.40;99.90
48752;DHT22;34544;48.836;9.174;2024-03-02T01:15:40;5.40;99.90
48752;DHT22;34544;48.836;9.174;2024-03-02T01:18:06;5.40;99.90
48752;DHT22;34544;48.836;9.174;2024-03-02T01:20:32;5.30;99.90
48752;DHT22;34544;48.836;9.174;2024-03-02T01:22:58;5.30;99.90
48752;DHT22;34544;48.836;9.174;2024-03-02T01:25:23;5.30;99.90
48752;DHT22;34544;48.836;9.174;2024-03-02T01:27:50;5.30;99.90
48752;DHT22;34544;48.836;9.174;2024-03-02T01:30:16;5.20;99.90
48752;DHT22;34544;48.836;9.174;2024-03-02T01:32:42;5.20;99.90
48752;DHT22;34544;48.836;9.174;2024-03-02T01:35:08;5.20;99.90
48752;DHT22;34544;48.836;9.174;2024-03-02T01:37:34;5.10;99.90
48752;DHT22;34544;48.836;9.174;2024-03-02T01:40:00;5.10;99.90
48752;DHT22;34544;48.836;9.174;2024-03-02T01:42:26;5.10;99.90
48752;DHT22;34544;48.836;9.174;2024-03-02T01:44:52;5.00;99.90
48752;DHT22;34544;48.836;9.174;2024-03-02T01:47:18;5.00;99.90
48752;DHT22;34544;48.836;9.174;2024-03-02T01:49:44;5.00;99.90
48752;DHT22;34544;48.836;9.174;2024-03-02T01:52:09;4.90;99.90
48752;DHT22;34544;48.836;9.174;2024-03-02T01:54:36;4.90;99.90
48752;DHT22;34544;48.836;9.174;2024-03-02T01:57:02;4.80;99.90
48752;DHT22;34544;48.836;9.174;2024-03-02T01:59:28;4.70;99.90
48752;DHT22;34544;48.836;9.174;2024-03-02T02:01:53;4.70;99.90
48752;DHT22;34544;48.836;9.174;2024-03-02T02:04:19;4.70;99.90
48752;DHT22;34544;48.836;9.174;2024-03-02T02:06:47;4.60;99.90
48752;DHT22;34544;48.836;9.174;2024-03-02T02:09:13;4.50;99.90
48752;DHT22;34544;48.836;9.174;2024-03-02T02:11:38;4.50;99.90
48752;DHT22;34544;48.836;9.174;2024-03-02T02:14:06;4.50;99.90
48752;DHT22;34544;48.836;9.174;2024-03-02T02:18:58;4.50;99.90
48752;DHT22;34544;48.836;9.174;2024-03-02T02:21:24;4.40;99.90
48752;DHT22;34544;48.836;9.174;2024-03-02T02:26:15;4.30;99.90
48752;DHT22;34544;48.836;9.174;2024-03-02T02:28:41;4.30;99.90
48752;DHT22;34544;48.836;9.174;2024-03-02T02:31:13;4.20;99.90
48752;DHT22;34544;48.836;9.174;2024-03-02T02:41:09;4.20;99.90
48752;DHT22;34544;48.836;9.174;2024-03-02T02:43:34;4.10;99.90
48752;DHT22;34544;48.836;9.174;2024-03-02T02:46:00;4.00;99.90
48752;DHT22;34544;48.836;9.174;2024-03-02T02:48:26;4.00;99.90
48752;DHT22;34544;48.836;9.174;2024-03-02T02:50:51;4.00;99.90
48752;DHT22;34544;48.836;9.174;2024-03-02T02:53:17;4.10;99.90
48752;DHT22;34544;48.836;9.174;2024-03-02T02:55:43;4.10;99.90
48752;DHT22;34544;48.836;9.174;2024-03-02T02:58:09;4.10;99.90
48752;DHT22;34544;48.836;9.174;2024-03-02T03:00:35;4.00;99.90
48752;DHT22;34544;48.836;9.174;2024-03-02T03:03:02;4.00;99.90
48752;DHT22;34544;48.836;9.174;2024-03-02T03:05:28;4.00;99.90
48752;DHT22;34544;48.836;9.174;2024-03-02T03:10:20;4.00;99.90
48752;DHT22;34544;48.836;9.174;2024-03-02T03:12:48;3.90;99.90
48752;DHT22;34544;48.836;9.174;2024-03-02T03:15:17;3.70;99.90
48752;DHT22;34544;48.836;9.174;2024-03-02T03:20:09;4.00;99.90
48752;DHT22;34544;48.836;9.174;2024-03-02T03:22:43;3.80;99.90
48752;DHT22;34544;48.836;9.174;2024-03-02T03:25:09;3.70;99.90
48752;DHT22;34544;48.836;9.174;2024-03-02T03:27:35;3.70;99.90
48752;DHT22;34544;48.836;9.174;2024-03-02T03:30:01;3.70;99.90
48752;DHT22;34544;48.836;9.174;2024-03-02T03:32:28;3.60;99.90
48752;DHT22;34544;48.836;9.174;2024-03-02T03:34:54;3.60;99.90
48752;DHT22;34544;48.836;9.174;2024-03-02T03:37:19;3.60;99.90
48752;DHT22;34544;48.836;9.174;2024-03-02T03:39:46;3.60;99.90
48752;DHT22;34544;48.836;9.174;2024-03-02T03:42:12;3.60;99.90
48752;DHT22;34544;48.836;9.174;2024-03-02T03:44:37;3.60;99.90
48752;DHT22;34544;48.836;9.174;2024-03-02T03:47:04;3.60;99.90
48752;DHT22;34544;48.836;9.174;2024-03-02T03:49:30;3.60;99.90
48752;DHT22;34544;48.836;9.174;2024-03-02T03:51:56;3.50;99.90
48752;DHT22;34544;48.836;9.174;2024-03-02T03:54:22;3.50;99.90
48752;DHT22;34544;48.836;9.174;2024-03-02T03:56:47;3.50;99.90
48752;DHT22;34544;48.836;9.174;2024-03-02T03:59:13;3.50;99.90
48752;DHT22;34544;48.836;9.174;2024-03-02T04:01:38;3.40;99.90
48752;DHT22;34544;48.836;9.174;2024-03-02T04:04:04;3.50;99.90
48752;DHT22;34544;48.836;9.174;2024-03-02T04:06:30;3.30;99.90
48752;DHT22;34544;48.836;9.174;2024-03-02T04:08:56;3.30;99.90
48752;DHT22;34544;48.836;9.174;2024-03-02T04:11:22;3.40;99.90
48752;DHT22;34544;48.836;9.174;2024-03-02T04:13:47;3.30;99.90
48752;DHT22;34544;48.836;9.174;2024-03-02T04:16:13;3.30;99.90
48752;DHT22;34544;48.836;9.174;2024-03-02T04:18:39;3.30;99.90
48752;DHT22;34544;48.836;9.174;2024-03-02T04:21:05;3.20;99.90
48752;DHT22;34544;48.836;9.174;2024-03-02T04:23:30;3.20;99.90
48752;DHT22;34544;48.836;9.174;2024-03-02T04:25:56;3.20;99.90
48752;DHT22;34544;48.836;9.174;2024-03-02T04:28:22;3.20;99.90
48752;DHT22;34544;48.836;9.174;2024-03-02T04:30:47;3.20;99.90
48752;DHT22;34544;48.836;9.174;2024-03-02T04:33:13;3.20;99.90
48752;DHT22;34544;48.836;9.174;2024-03-02T04:35:39;3.20;99.90
48752;DHT22;34544;48.836;9.174;2024-03-02T04:38:05;3.20;99.90
48752;DHT22;34544;48.836;9.174;2024-03-02T04:40:31;3.30;99.90
48752;DHT22;34544;48.836;9.174;2024-03-02T04:42:57;3.20;99.90
48752;DHT22;34544;48.836;9.174;2024-03-02T04:45:25;3.20;99.90
48752;DHT22;34544;48.836;9.174;2024-03-02T04:47:50;3.20;99.90
48752;DHT22;34544;48.836;9.174;2024-03-02T04:50:16;3.20;99.90
48752;DHT22;34544;48.836;9.174;2024-03-02T04:52:42;3.10;99.90
48752;DHT22;34544;48.836;9.174;2024-03-02T04:55:08;3.20;99.90
48752;DHT22;34544;48.836;9.174;2024-03-02T04:57:36;3.10;99.90
48752;DHT22;34544;48.836;9.174;2024-03-02T05:00:02;3.10;99.90
48752;DHT22;34544;48.836;9.174;2024-03-02T05:02:32;3.10;99.90
48752;DHT22;34544;48.836;9.174;2024-03-02T05:04:58;3.10;99.90
48752;DHT22;34544;48.836;9.174;2024-03-02T05:07:24;3.10;99.90
48752;DHT22;34544;48.836;9.174;2024-03-02T05:09:49;3.10;99.90
48752;DHT22;34544;48.836;9.174;2024-03-02T05:12:15;3.10;99.90
48752;DHT22;34544;48.836;9.174;2024-03-02T05:14:41;3.00;99.90
48752;DHT22;34544;48.836;9.174;2024-03-02T05:17:06;3.00;99.90
48752;DHT22;34544;48.836;9.174;2024-03-02T05:19:32;3.00;99.90
48752;DHT22;34544;48.836;9.174;2024-03-02T05:21:58;3.00;99.90
48752;DHT22;34544;48.836;9.174;2024-03-02T05:24:24;3.00;99.90
48752;DHT22;34544;48.836;9.174;2024-03-02T05:26:50;3.00;99.90
48752;DHT22;34544;48.836;9.174;2024-03-02T05:29:15;3.00;99.90
48752;DHT22;34544;48.836;9.174;2024-03-02T05:31:41;3.00;99.90
48752;DHT22;34544;48.836;9.174;2024-03-02T05:34:07;3.00;99.90
48752;DHT22;34544;48.836;9.174;2024-03-02T05:36:32;3.00;99.90
48752;DHT22;34544;48.836;9.174;2024-03-02T05:38:58;3.00;99.90
48752;DHT22;34544;48.836;9.174;2024-03-02T05:41:24;3.00;99.90
48752;DHT22;34544;48.836;9.174;2024-03-02T05:43:49;3.00;99.90
48752;DHT22;34544;48.836;9.174;2024-03-02T05:46:15;2.90;99.90
48752;DHT22;34544;48.836;9.174;2024-03-02T05:48:41;2.90;99.90
48752;DHT22;34544;48.836;9.174;2024-03-02T05:51:07;2.90;99.90
48752;DHT22;34544;48.836;9.174;2024-03-02T05:53:32;2.90;99.90
48752;DHT22;34544;48.836;9.174;2024-03-02T05:55:59;2.90;99.90
48752;DHT22;34544;48.836;9.174;2024-03-02T05:58:24;2.90;99.90
48752;DHT22;34544;48.836;9.174;2024-03-02T06:01:08;2.90;99.90
48752;DHT22;34544;48.836;9.174;2024-03-02T06:03:34;2.90;99.90
48752;DHT22;34544;48.836;9.174;2024-03-02T06:06:00;2.90;99.90
48752;DHT22;34544;48.836;9.174;2024-03-02T06:08:25;2.90;99.90
48752;DHT22;34544;48.836;9.174;2024-03-02T06:10:51;2.90;99.90
48752;DHT22;34544;48.836;9.174;2024-03-02T06:13:16;2.90;99.90
48752;DHT22;34544;48.836;9.174;2024-03-02T06:15:42;2.90;99.90
48752;DHT22;34544;48.836;9.174;2024-03-02T06:18:08;2.90;99.90
48752;DHT22;34544;48.836;9.174;2024-03-02T06:20:34;2.90;99.90
48752;DHT22;34544;48.836;9.174;2024-03-02T06:23:00;3.00;99.90
48752;DHT22;34544;48.836;9.174;2024-03-02T06:25:26;3.00;99.90
48752;DHT22;34544;48.836;9.174;2024-03-02T06:27:51;3.00;99.90
48752;DHT22;34544;48.836;9.174;2024-03-02T06:30:17;3.10;99.90
48752;DHT22;34544;48.836;9.174;2024-03-02T06:32:43;3.10;99.90
48752;DHT22;34544;48.836;9.174;2024-03-02T06:35:08;3.20;99.90
48752;DHT22;34544;48.836;9.174;2024-03-02T06:37:37;3.20;99.90
48752;DHT22;34544;48.836;9.174;2024-03-02T06:40:03;3.30;99.90
48752;DHT22;34544;48.836;9.174;2024-03-02T06:42:29;3.40;99.90
48752;DHT22;34544;48.836;9.174;2024-03-02T06:44:59;3.50;99.90
48752;DHT22;34544;48.836;9.174;2024-03-02T06:47:25;3.70;99.90
48752;DHT22;34544;48.836;9.174;2024-03-02T06:49:50;3.80;99.90
48752;DHT22;34544;48.836;9.174;2024-03-02T06:52:16;3.80;99.90
48752;DHT22;34544;48.836;9.174;2024-03-02T06:54:42;3.90;99.90
48752;DHT22;34544;48.836;9.174;2024-03-02T06:57:08;4.00;99.90
48752;DHT22;34544;48.836;9.174;2024-03-02T06:59:34;4.10;99.90
48752;DHT22;34544;48.836;9.174;2024-03-02T07:01:59;4.20;99.90
48752;DHT22;34544;48.836;9.174;2024-03-02T07:04:25;4.30;99.90
48752;DHT22;34544;48.836;9.174;2024-03-02T07:06:50;4.40;99.90
48752;DHT22;34544;48.836;9.174;2024-03-02T07:09:17;4.50;99.90
48752;DHT22;34544;48.836;9.174;2024-03-02T07:11:42;4.70;99.90
48752;DHT22;34544;48.836;9.174;2024-03-02T07:14:08;4.80;99.90
48752;DHT22;34544;48.836;9.174;2024-03-02T07:16:35;4.90;99.90
48752;DHT22;34544;48.836;9.174;2024-03-02T07:19:03;5.10;99.90
48752;DHT22;34544;48.836;9.174;2024-03-02T07:21:29;5.40;99.90
48752;DHT22;34544;48.836;9.174;2024-03-02T07:26:21;6.10;99.90
48752;DHT22;34544;48.836;9.174;2024-03-02T07:33:40;6.90;99.90
48752;DHT22;34544;48.836;9.174;2024-03-02T07:36:07;6.90;99.90
48752;DHT22;34544;48.836;9.174;2024-03-02T07:38:34;7.00;99.90
48752;DHT22;34544;48.836;9.174;2024-03-02T07:41:00;7.20;99.90
48752;DHT22;34544;48.836;9.174;2024-03-02T07:43:26;7.30;99.90
48752;DHT22;34544;48.836;9.174;2024-03-02T07:45:52;7.40;99.90
48752;DHT22;34544;48.836;9.174;2024-03-02T07:48:18;7.40;99.90
48752;DHT22;34544;48.836;9.174;2024-03-02T07:50:44;7.40;99.90
48752;DHT22;34544;48.836;9.174;2024-03-02T07:53:10;7.40;99.90
48752;DHT22;34544;48.836;9.174;2024-03-02T07:55:35;7.30;99.90
48752;DHT22;34544;48.836;9.174;2024-03-02T07:58:01;7.30;99.90
48752;DHT22;34544;48.836;9.174;2024-03-02T08:00:27;7.30;99.90
48752;DHT22;34544;48.836;9.174;2024-03-02T08:02:54;7.30;99.90
48752;DHT22;34544;48.836;9.174;2024-03-02T08:05:20;7.20;99.90
48752;DHT22;34544;48.836;9.174;2024-03-02T08:07:46;7.20;99.90
48752;DHT22;34544;48.836;9.174;2024-03-02T08:10:12;7.10;99.90
48752;DHT22;34544;48.836;9.174;2024-03-02T08:12:38;7.20;99.90
48752;DHT22;34544;48.836;9.174;2024-03-02T08:15:04;7.20;99.90
48752;DHT22;34544;48.836;9.174;2024-03-02T08:17:30;7.20;99.90
48752;DHT22;34544;48.836;9.174;2024-03-02T08:19:57;7.30;99.90
48752;DHT22;34544;48.836;9.174;2024-03-02T08:22:23;7.40;99.90
48752;DHT22;34544;48.836;9.174;2024-03-02T08:24:52;7.40;99.90
48752;DHT22;34544;48.836;9.174;2024-03-02T08:27:18;7.50;99.90
48752;DHT22;34544;48.836;9.174;2024-03-02T08:29:44;7.70;99.90
48752;DHT22;34544;48.836;9.174;2024-03-02T08:32:09;7.90;99.90
48752;DHT22;34544;48.836;9.174;2024-03-02T08:34:35;8.30;99.90
48752;DHT22;34544;48.836;9.174;2024-03-02T08:37:02;8.70;99.90
48752;DHT22;34544;48.836;9.174;2024-03-02T08:39:28;9.00;99.90
48752;DHT22;34544;48.836;9.174;2024-03-02T08:41:54;9.20;99.90
48752;DHT22;34544;48.836;9.174;2024-03-02T08:44:20;9.60;99.90
48752;DHT22;34544;48.836;9.174;2024-03-02T08:46:46;9.80;99.90
48752;DHT22;34544;48.836;9.174;2024-03-02T08:49:12;10.30;99.90
48752;DHT22;34544;48.836;9.174;2024-03-02T08:51:38;10.80;99.90
48752;DHT22;34544;48.836;9.174;2024-03-02T08:56:33;11.60;99.90
48752;DHT22;34544;48.836;9.174;2024-03-02T08:58:59;11.60;99.90
48752;DHT22;34544;48.836;9.174;2024-03-02T09:01:24;11.50;99.90
48752;DHT22;34544;48.836;9.174;2024-03-02T09:08:43;12.00;99.90
48752;DHT22;34544;48.836;9.174;2024-03-02T09:11:09;12.10;99.90
48752;DHT22;34544;48.836;9.174;2024-03-02T09:13:37;12.30;99.90
48752;DHT22;34544;48.836;9.174;2024-03-02T09:16:03;12.40;99.90
48752;DHT22;34544;48.836;9.174;2024-03-02T09:18:32;12.80;99.90
48752;DHT22;34544;48.836;9.174;2024-03-02T09:20:57;12.70;99.90
48752;DHT22;34544;48.836;9.174;2024-03-02T09:25:49;13.10;99.90
48752;DHT22;34544;48.836;9.174;2024-03-02T09:28:18;13.40;99.90
48752;DHT22;34544;48.836;9.174;2024-03-02T09:35:36;14.40;99.90
48752;DHT22;34544;48.836;9.174;2024-03-02T09:40:29;15.00;99.90
48752;DHT22;34544;48.836;9.174;2024-03-02T09:45:24;15.30;99.90
48752;DHT22;34544;48.836;9.174;2024-03-02T09:50:16;16.00;99.90
48752;DHT22;34544;48.836;9.174;2024-03-02T09:52:43;15.80;99.90
48752;DHT22;34544;48.836;9.174;2024-03-02T09:57:35;16.50;99.90
48752;DHT22;34544;48.836;9.174;2024-03-02T10:00:01;17.10;99.90
48752;DHT22;34544;48.836;9.174;2024-03-02T10:02:27;17.50;99.90
48752;DHT22;34544;48.836;9.174;2024-03-02T10:04:53;17.60;99.90
48752;DHT22;34544;48.836;9.174;2024-03-02T10:07:19;17.70;99.90
48752;DHT22;34544;48.836;9.174;2024-03-02T10:12:14;18.20;99.90
48752;DHT22;34544;48.836;9.174;2024-03-02T10:14:41;18.70;99.90
48752;DHT22;34544;48.836;9.174;2024-03-02T10:17:09;19.10;99.90
48752;DHT22;34544;48.836;9.174;2024-03-02T10:19:35;19.30;99.90
48752;DHT22;34544;48.836;9.174;2024-03-02T10:24:36;19.90;99.90
48752;DHT22;34544;48.836;9.174;2024-03-02T10:29:39;20.20;98.90
48752;DHT22;34544;48.836;9.174;2024-03-02T10:32:08;20.40;96.70
48752;DHT22;34544;48.836;9.174;2024-03-02T10:34:35;20.10;96.00
48752;DHT22;34544;48.836;9.174;2024-03-02T10:37:01;19.90;96.70
48752;DHT22;34544;48.836;9.174;2024-03-02T10:39:28;19.80;97.70
48752;DHT22;34544;48.836;9.174;2024-03-02T10:41:55;19.80;97.90
48752;DHT22;34544;48.836;9.174;2024-03-02T10:44:22;19.90;98.30
48752;DHT22;34544;48.836;9.174;2024-03-02T10:46:49;20.10;97.20
48752;DHT22;34544;48.836;9.174;2024-03-02T10:49:16;20.40;97.00
48752;DHT22;34544;48.836;9.174;2024-03-02T10:51:43;20.60;96.00
48752;DHT22;34544;48.836;9.174;2024-03-02T10:54:08;20.70;97.10
48752;DHT22;34544;48.836;9.174;2024-03-02T10:56:44;21.00;96.20
48752;DHT22;34544;48.836;9.174;2024-03-02T11:01:48;21.70;95.40
48752;DHT22;34544;48.836;9.174;2024-03-02T11:04:17;22.20;94.50
48752;DHT22;34544;48.836;9.174;2024-03-02T11:06:48;22.80;95.50
48752;DHT22;34544;48.836;9.174;2024-03-02T11:09:14;23.30;94.10
48752;DHT22;34544;48.836;9.174;2024-03-02T11:11:43;23.70;92.70
48752;DHT22;34544;48.836;9.174;2024-03-02T11:14:17;23.70;91.80
48752;DHT22;34544;48.836;9.174;2024-03-02T11:16:43;23.60;91.80
48752;DHT22;34544;48.836;9.174;2024-03-02T11:19:13;23.60;91.00
48752;DHT22;34544;48.836;9.174;2024-03-02T11:21:41;23.00;90.50
48752;DHT22;34544;48.836;9.174;2024-03-02T11:26:50;22.70;92.60
48752;DHT22;34544;48.836;9.174;2024-03-02T11:32:03;23.00;91.90
48752;DHT22;34544;48.836;9.174;2024-03-02T11:34:30;23.30;90.50
48752;DHT22;34544;48.836;9.174;2024-03-02T11:36:56;23.10;91.20
48752;DHT22;34544;48.836;9.174;2024-03-02T11:39:22;23.00;91.40
48752;DHT22;34544;48.836;9.174;2024-03-02T11:41:49;22.90;90.20
48752;DHT22;34544;48.836;9.174;2024-03-02T11:44:15;22.90;90.40
48752;DHT22;34544;48.836;9.174;2024-03-02T11:46:41;22.60;90.20
48752;DHT22;34544;48.836;9.174;2024-03-02T11:49:14;22.40;90.00
48752;DHT22;34544;48.836;9.174;2024-03-02T11:51:53;22.20;89.50
48752;DHT22;34544;48.836;9.174;2024-03-02T11:54:26;22.00;89.50
48752;DHT22;34544;48.836;9.174;2024-03-02T11:56:54;22.20;90.80
48752;DHT22;34544;48.836;9.174;2024-03-02T11:59:21;22.80;90.80
48752;DHT22;34544;48.836;9.174;2024-03-02T12:01:47;23.20;88.30
48752;DHT22;34544;48.836;9.174;2024-03-02T12:04:14;23.60;87.00
48752;DHT22;34544;48.836;9.174;2024-03-02T12:06:39;23.60;86.80
48752;DHT22;34544;48.836;9.174;2024-03-02T12:09:05;23.10;84.50
48752;DHT22;34544;48.836;9.174;2024-03-02T12:11:31;22.70;84.60
48752;DHT22;34544;48.836;9.174;2024-03-02T12:13:57;22.50;85.50
48752;DHT22;34544;48.836;9.174;2024-03-02T12:16:25;22.70;87.10
48752;DHT22;34544;48.836;9.174;2024-03-02T12:18:51;22.90;84.00
48752;DHT22;34544;48.836;9.174;2024-03-02T12:21:16;22.50;82.80
48752;DHT22;34544;48.836;9.174;2024-03-02T12:23:42;22.20;83.80
48752;DHT22;34544;48.836;9.174;2024-03-02T12:26:08;21.80;84.60
48752;DHT22;34544;48.836;9.174;2024-03-02T12:28:34;21.40;84.90
48752;DHT22;34544;48.836;9.174;2024-03-02T12:31:00;21.40;85.40
48752;DHT22;34544;48.836;9.174;2024-03-02T12:33:25;21.40;85.40
48752;DHT22;34544;48.836;9.174;2024-03-02T12:35:52;21.50;84.40
48752;DHT22;34544;48.836;9.174;2024-03-02T12:38:18;21.30;85.10
48752;DHT22;34544;48.836;9.174;2024-03-02T12:40:48;21.50;87.90
48752;DHT22;34544;48.836;9.174;2024-03-02T12:43:14;22.10;84.50
48752;DHT22;34544;48.836;9.174;2024-03-02T12:45:40;22.20;83.90
48752;DHT22;34544;48.836;9.174;2024-03-02T12:48:06;22.40;83.00
48752;DHT22;34544;48.836;9.174;2024-03-02T12:50:32;22.80;84.90
48752;DHT22;34544;48.836;9.174;2024-03-02T12:52:58;23.70;85.20
48752;DHT22;34544;48.836;9.174;2024-03-02T12:55:24;24.20;81.00
48752;DHT22;34544;48.836;9.174;2024-03-02T12:57:51;24.90;81.40
48752;DHT22;34544;48.836;9.174;2024-03-02T13:00:18;25.30;78.00
48752;DHT22;34544;48.836;9.174;2024-03-02T13:02:46;25.60;77.50
48752;DHT22;34544;48.836;9.174;2024-03-02T13:05:12;25.50;76.80
48752;DHT22;34544;48.836;9.174;2024-03-02T13:07:38;25.40;78.60
48752;DHT22;34544;48.836;9.174;2024-03-02T13:10:05;25.40;77.90
48752;DHT22;34544;48.836;9.174;2024-03-02T13:12:31;25.70;76.50
48752;DHT22;34544;48.836;9.174;2024-03-02T13:14:58;26.10;79.20
48752;DHT22;34544;48.836;9.174;2024-03-02T13:17:24;26.60;78.60
48752;DHT22;34544;48.836;9.174;2024-03-02T13:19:58;26.70;74.80
48752;DHT22;34544;48.836;9.174;2024-03-02T13:22:27;26.40;74.20
48752;DHT22;34544;48.836;9.174;2024-03-02T13:24:53;25.90;74.60
48752;DHT22;34544;48.836;9.174;2024-03-02T13:27:20;25.90;77.40
48752;DHT22;34544;48.836;9.174;2024-03-02T13:29:49;26.40;74.60
48752;DHT22;34544;48.836;9.174;2024-03-02T13:32:16;26.70;75.50
48752;DHT22;34544;48.836;9.174;2024-03-02T13:34:42;27.10;73.00
48752;DHT22;34544;48.836;9.174;2024-03-02T13:37:08;26.90;72.80
48752;DHT22;34544;48.836;9.174;2024-03-02T13:39:34;26.40;72.70
48752;DHT22;34544;48.836;9.174;2024-03-02T13:42:10;25.80;72.40
48752;DHT22;34544;48.836;9.174;2024-03-02T13:44:36;25.70;75.60
48752;DHT22;34544;48.836;9.174;2024-03-02T13:47:03;26.00;73.50
48752;DHT22;34544;48.836;9.174;2024-03-02T13:49:30;26.30;74.30
48752;DHT22;34544;48.836;9.174;2024-03-02T13:52:01;26.80;74.00
48752;DHT22;34544;48.836;9.174;2024-03-02T13:54:29;27.30;73.20
48752;DHT22;34544;48.836;9.174;2024-03-02T13:56:55;27.20;70.00
48752;DHT22;34544;48.836;9.174;2024-03-02T13:59:22;26.80;69.60
48752;DHT22;34544;48.836;9.174;2024-03-02T14:01:48;26.40;70.90
48752;DHT22;34544;48.836;9.174;2024-03-02T14:04:13;26.00;70.70
48752;DHT22;34544;48.836;9.174;2024-03-02T14:06:39;25.70;71.10
48752;DHT22;34544;48.836;9.174;2024-03-02T14:09:05;25.40;71.70
48752;DHT22;34544;48.836;9.174;2024-03-02T14:11:31;25.40;74.90
48752;DHT22;34544;48.836;9.174;2024-03-02T14:13:56;25.20;73.00
48752;DHT22;34544;48.836;9.174;2024-03-02T14:16:22;25.20;71.70
48752;DHT22;34544;48.836;9.174;2024-03-02T14:18:48;25.30;72.30
48752;DHT22;34544;48.836;9.174;2024-03-02T14:21:14;25.80;72.90
48752;DHT22;34544;48.836;9.174;2024-03-02T14:23:40;26.40;71.60
48752;DHT22;34544;48.836;9.174;2024-03-02T14:26:06;26.60;70.30
48752;DHT22;34544;48.836;9.174;2024-03-02T14:28:32;26.40;70.20
48752;DHT22;34544;48.836;9.174;2024-03-02T14:30:57;26.20;70.90
48752;DHT22;34544;48.836;9.174;2024-03-02T14:33:27;25.70;70.20
48752;DHT22;34544;48.836;9.174;2024-03-02T14:35:53;25.40;70.90
48752;DHT22;34544;48.836;9.174;2024-03-02T14:38:19;25.50;72.20
48752;DHT22;34544;48.836;9.174;2024-03-02T14:40:45;25.80;70.70
48752;DHT22;34544;48.836;9.174;2024-03-02T14:43:11;26.00;72.40
48752;DHT22;34544;48.836;9.174;2024-03-02T14:45:36;26.20;70.70
48752;DHT22;34544;48.836;9.174;2024-03-02T14:48:03;26.30;69.30
48752;DHT22;34544;48.836;9.174;2024-03-02T14:50:29;26.20;69.20
48752;DHT22;34544;48.836;9.174;2024-03-02T14:52:55;26.20;69.10
48752;DHT22;34544;48.836;9.174;2024-03-02T14:55:23;25.90;70.30
48752;DHT22;34544;48.836;9.174;2024-03-02T14:57:49;25.90;70.00
48752;DHT22;34544;48.836;9.174;2024-03-02T15:00:15;25.90;69.60
48752;DHT22;34544;48.836;9.174;2024-03-02T15:02:41;25.90;69.80
48752;DHT22;34544;48.836;9.174;2024-03-02T15:05:07;26.10;70.00
48752;DHT22;34544;48.836;9.174;2024-03-02T15:07:33;26.30;69.80
48752;DHT22;34544;48.836;9.174;2024-03-02T15:09:59;26.30;67.60
48752;DHT22;34544;48.836;9.174;2024-03-02T15:12:25;26.40;68.10
48752;DHT22;34544;48.836;9.174;2024-03-02T15:14:50;26.40;68.30
48752;DHT22;34544;48.836;9.174;2024-03-02T15:17:16;26.20;67.30
48752;DHT22;34544;48.836;9.174;2024-03-02T15:19:43;25.60;68.20
48752;DHT22;34544;48.836;9.174;2024-03-02T15:22:10;25.20;68.30
48752;DHT22;34544;48.836;9.174;2024-03-02T15:24:36;24.90;67.90
48752;DHT22;34544;48.836;9.174;2024-03-02T15:27:02;24.50;68.70
48752;DHT22;34544;48.836;9.174;2024-03-02T15:29:31;23.90;69.50
48752;DHT22;34544;48.836;9.174;2024-03-02T15:31:57;23.20;83.50
48752;DHT22;34544;48.836;9.174;2024-03-02T15:34:23;22.30;72.00
48752;DHT22;34544;48.836;9.174;2024-03-02T15:41:44;20.30;95.50
48752;DHT22;34544;48.836;9.174;2024-03-02T15:44:10;19.70;76.10
48752;DHT22;34544;48.836;9.174;2024-03-02T15:54:01;17.70;94.40
48752;DHT22;34544;48.836;9.174;2024-03-02T15:58:53;17.20;97.60
48752;DHT22;34544;48.836;9.174;2024-03-02T16:03:47;16.80;86.10
48752;DHT22;34544;48.836;9.174;2024-03-02T16:06:13;16.70;99.90
48752;DHT22;34544;48.836;9.174;2024-03-02T16:08:38;16.30;85.90
48752;DHT22;34544;48.836;9.174;2024-03-02T16:11:04;16.20;88.10
48752;DHT22;34544;48.836;9.174;2024-03-02T16:13:29;16.00;89.40
48752;DHT22;34544;48.836;9.174;2024-03-02T16:15:56;15.90;90.50
48752;DHT22;34544;48.836;9.174;2024-03-02T16:18:22;15.70;90.80
48752;DHT22;34544;48.836;9.174;2024-03-02T16:20:48;15.60;91.60
48752;DHT22;34544;48.836;9.174;2024-03-02T16:23:14;15.50;91.50
48752;DHT22;34544;48.836;9.174;2024-03-02T16:28:07;15.40;99.90
48752;DHT22;34544;48.836;9.174;2024-03-02T16:30:34;15.20;99.90
48752;DHT22;34544;48.836;9.174;2024-03-02T16:42:44;14.70;99.90
48752;DHT22;34544;48.836;9.174;2024-03-02T16:47:36;14.50;99.90
48752;DHT22;34544;48.836;9.174;2024-03-02T16:52:32;14.30;99.90
48752;DHT22;34544;48.836;9.174;2024-03-02T17:04:50;14.00;99.90
48752;DHT22;34544;48.836;9.174;2024-03-02T17:07:16;13.90;99.90
48752;DHT22;34544;48.836;9.174;2024-03-02T17:09:42;13.90;99.90
48752;DHT22;34544;48.836;9.174;2024-03-02T17:12:08;13.80;99.90
48752;DHT22;34544;48.836;9.174;2024-03-02T17:14:34;13.70;99.90
48752;DHT22;34544;48.836;9.174;2024-03-02T17:16:59;13.70;99.90
48752;DHT22;34544;48.836;9.174;2024-03-02T17:19:26;13.70;99.90
48752;DHT22;34544;48.836;9.174;2024-03-02T17:21:52;13.40;99.90
48752;DHT22;34544;48.836;9.174;2024-03-02T17:24:18;13.30;99.90
48752;DHT22;34544;48.836;9.174;2024-03-02T17:26:44;13.30;99.90